KRKP/RKP METAR and TAF weather

Enter ICAO airport designator
Station Type Date Time Source
KRKP METAR 2019/02/16 03:33 UTC NOAA

KRKP 160333Z AUTO 18009G17KT 2SM BR SCT004 19/18 A2976 RMK AO2 T01890183


Station Type Date Time Source
KRKP Decoded METAR 2019/02/16 03:33 UTC NOAA

ROCKPORT ARANSAS COUNTY AIRPORT , TX, United States (KRKP) 28-05N 97-03W 6M
Feb 15, 2019 - 10:33 PM EST / 2019.02.16 0333 UTC
Wind: from the S (180 degrees) at 10 MPH (9 KT) gusting to 20 MPH (17 KT):0
Visibility: 2 mile(s):0
Sky conditions: partly cloudy
Weather: mist
Temperature: 66.0 F (18.9 C)
Dew Point: 64.9 F (18.3 C)
Relative Humidity: 96%
Pressure (altimeter): 29.76 in. Hg (1007 hPa)
ob: KRKP 160333Z AUTO 18009G17KT 2SM BR SCT004 19/18 A2976 RMK AO2 T01890183
cycle: 3

Station Type Date Time Source
KRKP TAF UTC NOAA

Error!


Example: see airport list